createdAt,value
2023-05-25T00:01:06.232Z,98662.22
2023-05-25T00:03:36.911Z,98658.47
2023-05-25T00:06:07.225Z,98652.28
2023-05-25T00:08:35.260Z,98651.38
2023-05-25T00:11:05.582Z,98645.66
2023-05-25T00:13:34.580Z,98644.97
2023-05-25T00:16:06.685Z,98647.94
2023-05-25T00:18:38.557Z,98643.41
2023-05-25T00:21:08.416Z,98645.41
2023-05-25T00:23:37.683Z,98643.13
2023-05-25T00:26:06.298Z,98642.06
2023-05-25T00:28:39.830Z,98637.81
2023-05-25T00:31:08.148Z,98633.69
2023-05-25T00:33:36.809Z,98631.44
2023-05-25T00:36:06.488Z,98636.91
2023-05-25T00:38:38.876Z,98633.03
2023-05-25T00:41:07.030Z,98644.28
2023-05-25T00:43:34.965Z,98639.81
2023-05-25T00:46:04.553Z,98645.00
2023-05-25T00:48:32.921Z,98642.66
2023-05-25T00:51:01.934Z,98653.25
2023-05-25T00:53:29.748Z,98638.47
2023-05-25T00:56:06.226Z,98641.41
2023-05-25T00:58:37.281Z,98636.19
2023-05-25T01:01:06.362Z,98639.50
2023-05-25T01:03:39.313Z,98638.59
2023-05-25T01:06:13.099Z,98636.56
2023-05-25T01:08:43.259Z,98637.78
2023-05-25T01:11:13.350Z,98633.78
2023-05-25T01:13:43.469Z,98637.34
2023-05-25T01:16:11.304Z,98630.06
2023-05-25T01:18:41.862Z,98639.56
2023-05-25T01:21:18.189Z,98637.00
2023-05-25T01:23:53.779Z,98643.34
2023-05-25T01:26:24.878Z,98643.34
2023-05-25T01:28:53.892Z,98638.38
2023-05-25T01:31:23.819Z,98636.31
2023-05-25T01:33:53.144Z,98633.50
2023-05-25T01:36:22.373Z,98634.06
2023-05-25T01:38:50.583Z,98631.91
2023-05-25T01:41:18.326Z,98634.06
2023-05-25T01:43:46.724Z,98633.75
2023-05-25T01:46:23.397Z,98638.91
2023-05-25T01:48:59.846Z,98644.72
2023-05-25T01:51:45.114Z,98645.72
2023-05-25T01:54:19.385Z,98662.06
2023-05-25T01:56:50.016Z,98657.59
2023-05-25T01:59:21.583Z,98647.00
2023-05-25T02:01:52.939Z,98655.31
2023-05-25T02:04:22.204Z,98653.75
2023-05-25T02:06:52.588Z,98655.47
2023-05-25T02:09:20.589Z,98647.31
2023-05-25T02:11:48.260Z,98639.94
2023-05-25T02:14:17.845Z,98649.88
2023-05-25T02:16:47.060Z,98651.47
2023-05-25T02:19:15.206Z,98649.88
2023-05-25T02:21:43.241Z,98646.72
2023-05-25T02:24:12.496Z,98647.63
2023-05-25T02:26:40.744Z,98651.03
2023-05-25T02:29:08.458Z,98651.34
2023-05-25T02:31:36.224Z,98652.16
2023-05-25T02:34:04.248Z,98654.88
2023-05-25T02:36:32.085Z,98649.88
2023-05-25T02:38:59.808Z,98650.56
2023-05-25T02:41:29.005Z,98660.13
2023-05-25T02:43:56.650Z,98648.94
2023-05-25T02:46:24.446Z,98650.88
2023-05-25T02:48:52.240Z,98643.19
2023-05-25T02:51:19.882Z,98645.28
2023-05-25T02:53:48.252Z,98639.69
2023-05-25T02:56:16.250Z,98643.19
2023-05-25T02:58:45.409Z,98644.44
2023-05-25T03:01:18.714Z,98653.59
2023-05-25T03:03:47.365Z,98651.50
2023-05-25T03:06:16.058Z,98648.47
2023-05-25T03:08:43.762Z,98639.97
2023-05-25T03:11:11.580Z,98648.78
2023-05-25T03:13:39.314Z,98652.78
2023-05-25T03:16:09.224Z,98651.97
2023-05-25T03:18:37.442Z,98651.66
2023-05-25T03:21:05.529Z,98660.44
2023-05-25T03:23:33.437Z,98659.81
2023-05-25T03:26:01.142Z,98663.31
2023-05-25T03:28:28.918Z,98662.69
2023-05-25T03:30:57.789Z,98665.56
2023-05-25T03:33:26.830Z,98665.88
2023-05-25T03:35:54.518Z,98666.84
2023-05-25T03:38:22.202Z,98671.00
2023-05-25T03:40:49.919Z,98671.47
2023-05-25T03:43:17.645Z,98683.94
2023-05-25T03:45:45.484Z,98683.78
2023-05-25T03:48:13.404Z,98697.06
2023-05-25T03:50:42.576Z,98698.81
2023-05-25T03:53:10.287Z,98698.81
2023-05-25T03:55:38.414Z,98706.53
2023-05-25T03:58:06.140Z,98699.19
2023-05-25T04:00:33.952Z,98694.72
2023-05-25T04:03:01.791Z,98704.63
2023-05-25T04:05:29.630Z,98704.81
2023-05-25T04:07:59.315Z,98701.97
2023-05-25T04:10:26.956Z,98694.41
2023-05-25T04:12:56.727Z,98699.22
2023-05-25T04:15:25.098Z,98696.50
2023-05-25T04:17:52.938Z,98704.34
2023-05-25T04:20:20.980Z,98703.06
2023-05-25T04:22:49.981Z,98698.41
2023-05-25T04:25:19.983Z,98704.50
2023-05-25T04:27:48.959Z,98711.69
2023-05-25T04:30:17.334Z,98709.47
2023-05-25T04:32:46.786Z,98712.97
2023-05-25T04:35:15.439Z,98708.63
2023-05-25T04:37:43.582Z,98705.09
2023-05-25T04:40:14.081Z,98709.72
2023-05-25T04:42:43.477Z,98712.44
2023-05-25T04:45:11.918Z,98713.84
2023-05-25T04:47:41.314Z,98719.28
2023-05-25T04:50:10.370Z,98723.44
2023-05-25T04:52:38.265Z,98727.41
2023-05-25T04:55:07.855Z,98719.81
2023-05-25T04:57:35.825Z,98728.47
2023-05-25T05:00:07.150Z,98729.59
2023-05-25T05:02:35.043Z,98731.66
2023-05-25T05:05:02.901Z,98733.69
2023-05-25T05:07:31.643Z,98737.91
2023-05-25T05:09:59.426Z,98742.66
2023-05-25T05:12:27.101Z,98739.81
2023-05-25T05:14:56.015Z,98742.50
2023-05-25T05:17:26.413Z,98743.34
2023-05-25T05:19:54.389Z,98745.31
2023-05-25T05:22:22.188Z,98744.28
2023-05-25T05:24:50.965Z,98748.88
2023-05-25T05:27:18.725Z,98750.06
2023-05-25T05:29:46.611Z,98747.03
2023-05-25T05:32:14.294Z,98752.34
2023-05-25T05:34:43.355Z,98756.22
2023-05-25T05:37:11.120Z,98750.75
2023-05-25T05:39:38.876Z,98752.88
2023-05-25T05:42:08.121Z,98744.06
2023-05-25T05:44:36.155Z,98749.69
2023-05-25T05:47:03.925Z,98747.31
2023-05-25T05:49:32.240Z,98751.47
2023-05-25T05:52:01.434Z,98754.53
2023-05-25T05:54:29.194Z,98757.75
2023-05-25T05:56:56.987Z,98748.41
2023-05-25T05:59:24.985Z,98751.66
2023-05-25T06:01:52.787Z,98757.81
2023-05-25T06:04:20.980Z,98752.78
2023-05-25T06:06:48.699Z,98754.16
2023-05-25T06:09:18.868Z,98749.94
2023-05-25T06:11:46.610Z,98751.59
2023-05-25T06:14:14.435Z,98753.63
2023-05-25T06:16:43.678Z,98748.81
2023-05-25T06:19:11.772Z,98742.19
2023-05-25T06:21:39.535Z,98743.03
2023-05-25T06:24:08.277Z,98748.19
2023-05-25T06:26:37.379Z,98752.25
2023-05-25T06:29:05.088Z,98757.78
2023-05-25T06:31:32.840Z,98752.63
2023-05-25T06:34:00.695Z,98754.75
2023-05-25T06:36:28.666Z,98764.75
2023-05-25T06:38:56.498Z,98764.53
2023-05-25T06:41:24.220Z,98758.88
2023-05-25T06:43:53.284Z,98766.44
2023-05-25T06:46:21.664Z,98762.25
2023-05-25T06:48:49.529Z,98751.09
2023-05-25T06:51:17.347Z,98761.41
2023-05-25T06:53:46.436Z,98757.78
2023-05-25T06:56:14.143Z,98745.63
2023-05-25T06:58:42.157Z,98753.97
2023-05-25T07:01:11.251Z,98757.88
2023-05-25T07:03:39.526Z,98753.13
2023-05-25T07:06:07.750Z,98748.78
2023-05-25T07:08:36.315Z,98752.38
2023-05-25T07:11:04.080Z,98746.16
2023-05-25T07:13:31.912Z,98743.63
2023-05-25T07:15:59.687Z,98734.91
2023-05-25T07:18:28.912Z,98737.38
2023-05-25T07:20:56.597Z,98734.72
2023-05-25T07:23:24.406Z,98742.31
2023-05-25T07:25:52.318Z,98734.28
2023-05-25T07:28:20.219Z,98735.06
2023-05-25T07:30:47.977Z,98737.78
2023-05-25T07:33:15.715Z,98739.28
2023-05-25T07:35:45.088Z,98752.06
2023-05-25T07:38:12.919Z,98745.84
2023-05-25T07:40:40.702Z,98751.22
2023-05-25T07:43:09.230Z,98748.88
2023-05-25T07:45:37.233Z,98746.38
2023-05-25T07:48:07.217Z,98743.28
2023-05-25T07:50:34.963Z,98755.38
2023-05-25T07:53:04.016Z,98745.31
2023-05-25T07:55:31.804Z,98746.84
2023-05-25T07:57:59.588Z,98756.41
2023-05-25T08:00:27.419Z,98750.75
2023-05-25T08:02:55.462Z,98752.16
2023-05-25T08:05:23.173Z,98751.50
2023-05-25T08:07:50.997Z,98746.28
2023-05-25T08:10:20.155Z,98749.41
2023-05-25T08:12:50.209Z,98750.09
2023-05-25T08:15:19.193Z,98738.66
2023-05-25T08:17:49.423Z,98747.19
2023-05-25T08:20:17.755Z,98743.16
2023-05-25T08:22:45.589Z,98747.13
2023-05-25T08:25:13.346Z,98743.50
2023-05-25T08:27:42.715Z,98739.28
2023-05-25T08:30:11.311Z,98737.50
2023-05-25T08:32:39.380Z,98746.06
2023-05-25T08:35:07.983Z,98739.56
2023-05-25T08:37:37.636Z,98736.13
2023-05-25T08:40:07.901Z,98731.38
2023-05-25T08:42:37.309Z,98727.50
2023-05-25T08:48:02.485Z,98736.28
2023-05-25T08:50:31.994Z,98732.50
2023-05-25T08:53:04.017Z,98732.53
2023-05-25T08:55:36.807Z,98735.44
2023-05-25T08:58:11.174Z,98732.28
2023-05-25T09:00:46.279Z,98734.38
2023-05-25T09:03:18.151Z,98729.47
2023-05-25T09:05:46.910Z,98732.09
2023-05-25T09:08:15.781Z,98740.13
2023-05-25T09:10:44.184Z,98742.69
2023-05-25T09:15:45.285Z,98737.69
2023-05-25T09:18:13.268Z,98737.69
2023-05-25T09:20:44.270Z,98739.22
2023-05-25T09:23:43.494Z,98749.69
2023-05-25T09:26:11.691Z,98742.84
2023-05-25T09:28:47.652Z,98744.38
2023-05-25T09:31:17.592Z,98736.97
2023-05-25T09:33:46.999Z,98734.44
2023-05-25T09:36:16.672Z,98737.16
2023-05-25T09:38:45.283Z,98742.56
2023-05-25T09:41:13.382Z,98736.97
2023-05-25T09:43:46.812Z,98724.63
2023-05-25T09:46:23.757Z,98720.53
2023-05-25T09:48:53.635Z,98722.81
2023-05-25T09:51:22.442Z,98730.78
2023-05-25T09:53:50.906Z,98723.31
2023-05-25T09:56:19.123Z,98732.78
2023-05-25T09:58:46.837Z,98731.00
2023-05-25T10:01:14.845Z,98729.03
2023-05-25T10:03:59.820Z,98724.38
2023-05-25T10:06:33.635Z,98731.22
2023-05-25T10:09:04.971Z,98731.03
2023-05-25T10:11:36.213Z,98725.19
2023-05-25T10:14:07.704Z,98736.31
2023-05-25T10:16:36.035Z,98742.53
2023-05-25T10:19:14.950Z,98737.25
2023-05-25T10:21:44.267Z,98727.59
2023-05-25T10:24:21.733Z,98726.16
2023-05-25T10:26:55.101Z,98725.59
2023-05-25T10:29:25.055Z,98731.41
2023-05-25T10:31:54.445Z,98735.28
2023-05-25T10:34:23.917Z,98717.03
2023-05-25T10:36:52.573Z,98727.03
2023-05-25T10:39:21.297Z,98730.06
2023-05-25T10:41:50.164Z,98719.84
2023-05-25T10:44:18.736Z,98712.66
2023-05-25T10:46:46.830Z,98717.78
2023-05-25T10:49:14.581Z,98723.09
2023-05-25T10:51:43.877Z,98715.91
2023-05-25T10:54:14.743Z,98726.53
2023-05-25T10:57:09.659Z,98728.88
2023-05-25T10:59:37.871Z,98717.44
2023-05-25T11:02:09.359Z,98718.94
2023-05-25T11:04:38.082Z,98706.88
2023-05-25T11:07:13.539Z,98718.53
2023-05-25T11:09:45.962Z,98699.63
2023-05-25T11:12:20.956Z,98709.66
2023-05-25T11:15:18.866Z,98705.06
2023-05-25T11:17:48.106Z,98716.59
2023-05-25T11:20:33.108Z,98714.09
2023-05-25T11:23:23.969Z,98709.81
2023-05-25T11:25:51.693Z,98697.88
2023-05-25T11:28:19.452Z,98706.22
2023-05-25T11:30:47.199Z,98711.22
2023-05-25T11:33:17.053Z,98700.16
2023-05-25T11:35:45.530Z,98702.06
2023-05-25T11:38:15.958Z,98704.00
2023-05-25T11:40:43.665Z,98697.16
2023-05-25T11:43:13.609Z,98697.81
2023-05-25T11:45:41.464Z,98699.22
2023-05-25T11:48:14.754Z,98688.97
2023-05-25T11:50:42.626Z,98698.78
2023-05-25T11:53:10.901Z,98686.03
2023-05-25T11:55:41.047Z,98698.56
2023-05-25T11:58:08.896Z,98681.91
2023-05-25T12:00:36.601Z,98687.38
2023-05-25T12:03:05.799Z,98692.59
2023-05-25T12:05:40.276Z,98704.19
2023-05-25T12:08:08.259Z,98693.00
2023-05-25T12:10:52.248Z,98686.47
2023-05-25T12:13:19.977Z,98682.63
2023-05-25T12:15:48.000Z,98684.59
2023-05-25T12:18:16.067Z,98674.16
2023-05-25T12:20:43.956Z,98676.22
2023-05-25T12:23:12.141Z,98678.16
2023-05-25T12:25:50.285Z,98675.69
2023-05-25T12:28:20.436Z,98663.09
2023-05-25T12:30:48.350Z,98662.59
2023-05-25T12:33:16.496Z,98665.75
2023-05-25T12:35:48.719Z,98659.69
2023-05-25T12:38:18.465Z,98659.91
2023-05-25T12:40:46.446Z,98653.47
2023-05-25T12:43:16.985Z,98659.66
2023-05-25T12:45:46.266Z,98656.97
2023-05-25T12:48:14.167Z,98654.31
2023-05-25T12:50:59.856Z,98648.03
2023-05-25T12:53:29.042Z,98646.66
2023-05-25T12:56:04.249Z,98646.78
2023-05-25T12:58:32.004Z,98645.84
2023-05-25T13:01:02.633Z,98648.56
2023-05-25T13:03:30.842Z,98654.44
2023-05-25T13:06:02.370Z,98646.28
2023-05-25T13:08:30.505Z,98645.44
2023-05-25T13:10:58.380Z,98634.59
2023-05-25T13:13:26.888Z,98634.81
2023-05-25T13:15:54.793Z,98635.53
2023-05-25T13:18:23.913Z,98644.59
2023-05-25T13:20:55.174Z,98641.16
2023-05-25T13:23:24.226Z,98632.47
2023-05-25T13:25:51.897Z,98638.81
2023-05-25T13:28:19.601Z,98626.25
2023-05-25T13:30:47.303Z,98630.34
2023-05-25T13:33:15.060Z,98637.19
2023-05-25T13:35:58.279Z,98626.38
2023-05-25T13:38:27.171Z,98624.06
2023-05-25T13:40:54.890Z,98624.22
2023-05-25T13:43:22.686Z,98624.44
2023-05-25T13:45:50.484Z,98616.59
2023-05-25T13:48:18.585Z,98619.31
2023-05-25T13:50:47.855Z,98621.34
2023-05-25T13:53:15.796Z,98625.16
2023-05-25T13:55:43.946Z,98616.97
2023-05-25T13:58:11.650Z,98616.44
2023-05-25T14:00:39.458Z,98610.31
2023-05-25T14:03:07.453Z,98608.19
2023-05-25T14:05:35.224Z,98595.53
2023-05-25T14:08:04.882Z,98596.47
2023-05-25T14:10:32.862Z,98590.81
2023-05-25T14:13:00.968Z,98593.16
2023-05-25T14:15:28.733Z,98596.06
2023-05-25T14:17:57.683Z,98587.84
2023-05-25T14:20:26.556Z,98600.38
2023-05-25T14:22:54.584Z,98594.53
2023-05-25T14:25:23.814Z,98592.03
2023-05-25T14:27:52.600Z,98585.91
2023-05-25T14:30:21.015Z,98597.19
2023-05-25T14:32:48.758Z,98590.53
2023-05-25T14:35:16.477Z,98583.84
2023-05-25T14:37:44.260Z,98593.47
2023-05-25T14:40:13.204Z,98586.75
2023-05-25T14:42:42.298Z,98600.09
2023-05-25T14:45:11.692Z,98585.06
2023-05-25T14:47:40.828Z,98586.38
2023-05-25T14:50:09.690Z,98587.53
2023-05-25T14:52:37.761Z,98585.53
2023-05-25T14:55:06.040Z,98588.03
2023-05-25T14:57:33.739Z,98588.50
2023-05-25T15:00:03.602Z,98589.41
2023-05-25T15:02:31.490Z,98592.63
2023-05-25T15:04:59.513Z,98590.72
2023-05-25T15:07:27.266Z,98592.75
2023-05-25T15:09:54.978Z,98588.59
2023-05-25T15:12:23.601Z,98588.50
2023-05-25T15:14:51.317Z,98584.03
2023-05-25T15:17:20.356Z,98594.16
2023-05-25T15:19:48.345Z,98592.69
2023-05-25T15:22:16.315Z,98585.81
2023-05-25T15:24:44.062Z,98587.94
2023-05-25T15:27:11.835Z,98587.75
2023-05-25T15:29:39.815Z,98581.81
2023-05-25T15:32:10.264Z,98580.22
2023-05-25T15:34:39.681Z,98582.34
2023-05-25T15:37:07.793Z,98579.03
2023-05-25T15:39:35.553Z,98570.38
2023-05-25T15:42:06.469Z,98583.75
2023-05-25T15:44:35.649Z,98579.81
2023-05-25T15:47:03.776Z,98580.09
2023-05-25T15:49:32.178Z,98590.69
2023-05-25T15:52:03.804Z,98579.94
2023-05-25T15:54:32.180Z,98579.41
2023-05-25T15:57:00.672Z,98575.50
2023-05-25T15:59:28.381Z,98575.50
2023-05-25T16:01:56.233Z,98573.00
2023-05-25T16:04:24.416Z,98575.38
2023-05-25T16:06:53.813Z,98571.63
2023-05-25T16:09:22.851Z,98574.84
2023-05-25T16:11:51.465Z,98565.56
2023-05-25T16:14:19.519Z,98579.13
2023-05-25T16:16:48.812Z,98575.16
2023-05-25T16:19:17.169Z,98575.41
2023-05-25T16:21:48.097Z,98573.13
2023-05-25T16:24:26.900Z,98569.22
2023-05-25T16:27:09.202Z,98574.22
2023-05-25T16:29:42.102Z,98571.06
2023-05-25T16:32:09.901Z,98572.50
2023-05-25T16:34:37.696Z,98571.03
2023-05-25T16:37:06.008Z,98577.53
2023-05-25T16:39:34.037Z,98578.72
2023-05-25T16:42:05.011Z,98574.41
2023-05-25T16:44:33.062Z,98566.78
2023-05-25T16:47:00.864Z,98571.13
2023-05-25T16:49:28.612Z,98567.16
2023-05-25T16:51:56.327Z,98559.47
2023-05-25T16:54:24.419Z,98566.69
2023-05-25T16:56:52.093Z,98560.38
2023-05-25T16:59:22.981Z,98563.81
2023-05-25T17:01:51.192Z,98562.31
2023-05-25T17:04:19.077Z,98566.41
2023-05-25T17:06:46.865Z,98566.06
2023-05-25T17:09:14.749Z,98571.38
2023-05-25T17:11:42.424Z,98563.63
2023-05-25T17:14:10.490Z,98562.88
2023-05-25T17:16:39.936Z,98566.03
2023-05-25T17:19:07.808Z,98575.09
2023-05-25T17:21:35.975Z,98567.22
2023-05-25T17:24:03.955Z,98579.56
2023-05-25T17:26:33.353Z,98576.31
2023-05-25T17:29:01.661Z,98575.63
2023-05-25T17:31:29.793Z,98575.72
2023-05-25T17:33:59.107Z,98572.19
2023-05-25T17:36:26.937Z,98574.22
2023-05-25T17:38:54.962Z,98573.50
2023-05-25T17:41:23.683Z,98581.50
2023-05-25T17:43:51.640Z,98578.81
2023-05-25T17:46:19.662Z,98578.44
2023-05-25T17:48:47.372Z,98583.59
2023-05-25T17:51:16.753Z,98581.31
2023-05-25T17:53:44.919Z,98596.03
2023-05-25T17:56:12.805Z,98592.84
2023-05-25T17:58:41.026Z,98589.75
2023-05-25T18:01:09.092Z,98591.38
2023-05-25T18:03:37.063Z,98591.00
2023-05-25T18:06:05.124Z,98593.03
2023-05-25T18:08:34.416Z,98592.25
2023-05-25T18:11:02.534Z,98597.03
2023-05-25T18:13:30.281Z,98599.47
2023-05-25T18:15:58.050Z,98601.44
2023-05-25T18:18:25.787Z,98603.47
2023-05-25T18:20:55.451Z,98615.38
2023-05-25T18:23:23.781Z,98613.78
2023-05-25T18:25:58.124Z,98613.00
2023-05-25T18:28:25.810Z,98610.66
2023-05-25T18:30:54.054Z,98614.63
2023-05-25T18:33:23.451Z,98615.84
2023-05-25T18:35:51.161Z,98615.84
2023-05-25T18:38:18.877Z,98615.88
2023-05-25T18:40:47.214Z,98617.84
2023-05-25T18:43:16.433Z,98621.03
2023-05-25T18:45:45.540Z,98636.09
2023-05-25T18:48:13.553Z,98632.94
2023-05-25T18:50:44.488Z,98628.97
2023-05-25T18:53:12.693Z,98632.97
2023-05-25T18:55:40.624Z,98632.56
2023-05-25T18:58:08.569Z,98635.31
2023-05-25T19:00:37.861Z,98635.34
2023-05-25T19:03:06.747Z,98637.28
2023-05-25T19:05:34.662Z,98643.19
2023-05-25T19:08:03.855Z,98647.19
2023-05-25T19:10:33.182Z,98649.53
2023-05-25T19:13:00.971Z,98659.00
2023-05-25T19:15:28.699Z,98659.03
2023-05-25T19:18:00.579Z,98667.69
2023-05-25T19:20:28.652Z,98671.66
2023-05-25T19:22:57.419Z,98685.09
2023-05-25T19:25:26.782Z,98686.25
2023-05-25T19:27:55.184Z,98688.22
2023-05-25T19:30:25.919Z,98689.38
2023-05-25T19:32:53.903Z,98696.81
2023-05-25T19:35:24.290Z,98698.38
2023-05-25T19:37:52.173Z,98691.19
2023-05-25T19:40:20.466Z,98695.13
2023-05-25T19:42:48.278Z,98695.13
2023-05-25T19:45:19.283Z,98703.03
2023-05-25T19:47:57.819Z,98699.84
2023-05-25T19:50:32.881Z,98706.91
2023-05-25T19:53:02.913Z,98705.31
2023-05-25T19:55:34.435Z,98706.06
2023-05-25T19:58:08.830Z,98712.34
2023-05-25T20:00:37.470Z,98712.72
2023-05-25T20:03:12.026Z,98717.03
2023-05-25T20:05:44.207Z,98721.75
2023-05-25T20:08:15.268Z,98722.50
2023-05-25T20:10:44.834Z,98724.06
2023-05-25T20:13:14.118Z,98724.00
2023-05-25T20:15:47.416Z,98723.91
2023-05-25T20:18:23.828Z,98720.75
2023-05-25T20:20:54.338Z,98728.56
2023-05-25T20:23:22.880Z,98726.22
2023-05-25T20:25:51.099Z,98730.91
2023-05-25T20:28:23.901Z,98730.88
2023-05-25T20:30:54.259Z,98735.47
2023-05-25T20:33:24.620Z,98742.16
2023-05-25T20:35:54.119Z,98738.50
2023-05-25T20:38:28.022Z,98751.81
2023-05-25T20:40:58.153Z,98744.63
2023-05-25T20:43:26.831Z,98741.88
2023-05-25T20:45:56.403Z,98742.53
2023-05-25T20:48:25.731Z,98742.16
2023-05-25T20:50:55.680Z,98744.38
2023-05-25T20:53:36.773Z,98746.69
2023-05-25T20:56:07.364Z,98747.78
2023-05-25T20:58:38.041Z,98746.56
2023-05-25T21:01:10.077Z,98748.06
2023-05-25T21:03:38.698Z,98753.56
2023-05-25T21:06:13.458Z,98756.19
2023-05-25T21:08:44.489Z,98755.84
2023-05-25T21:11:16.025Z,98754.81
2023-05-25T21:13:47.590Z,98753.22
2023-05-25T21:16:17.400Z,98761.03
2023-05-25T21:18:48.007Z,98769.72
2023-05-25T21:21:18.404Z,98762.72
2023-05-25T21:23:47.342Z,98766.09
2023-05-25T21:26:15.834Z,98776.50
2023-05-25T21:28:46.160Z,98772.69
2023-05-25T21:31:15.371Z,98775.63
2023-05-25T21:33:43.734Z,98780.34
2023-05-25T21:36:12.218Z,98791.44
2023-05-25T21:38:42.014Z,98787.38
2023-05-25T21:41:17.836Z,98786.03
2023-05-25T21:43:46.159Z,98795.72
2023-05-25T21:46:14.954Z,98794.94
2023-05-25T21:48:43.207Z,98798.41
2023-05-25T21:51:26.692Z,98792.47
2023-05-25T21:53:58.101Z,98795.56
2023-05-25T21:56:27.820Z,98793.53
2023-05-25T21:58:58.488Z,98802.53
2023-05-25T22:01:29.958Z,98804.84
2023-05-25T22:03:59.466Z,98809.63
2023-05-25T22:06:29.369Z,98812.56
2023-05-25T22:09:01.163Z,98816.34
2023-05-25T22:11:30.520Z,98813.88
2023-05-25T22:13:59.617Z,98814.59
2023-05-25T22:16:28.614Z,98825.47
2023-05-25T22:45:17.902Z,98825.56
2023-05-25T22:47:47.066Z,98821.59
2023-05-25T22:50:17.031Z,98824.78
2023-05-25T22:52:45.160Z,98828.84
2023-05-25T22:55:13.192Z,98827.34
2023-05-25T22:57:42.749Z,98825.78
2023-05-25T23:00:11.124Z,98829.75
2023-05-25T23:02:41.208Z,98837.94
2023-05-25T23:05:11.433Z,98835.72
2023-05-25T23:07:41.331Z,98830.41
2023-05-25T23:10:10.931Z,98830.81
2023-05-25T23:12:41.976Z,98833.81
2023-05-25T23:15:13.792Z,98826.66
2023-05-25T23:17:42.740Z,98826.81
2023-05-25T23:20:12.487Z,98828.16
2023-05-25T23:22:41.858Z,98824.91
2023-05-25T23:25:13.988Z,98822.50
2023-05-25T23:27:43.234Z,98831.72
2023-05-25T23:30:15.883Z,98827.34
2023-05-25T23:32:48.114Z,98837.56
2023-05-25T23:35:16.531Z,98832.44
2023-05-25T23:37:46.796Z,98840.66
2023-05-25T23:40:21.872Z,98832.53
2023-05-25T23:42:49.878Z,98843.06
2023-05-25T23:45:22.852Z,98839.00
2023-05-25T23:47:53.055Z,98839.81
2023-05-25T23:50:22.898Z,98832.97
2023-05-25T23:52:52.043Z,98835.19
2023-05-25T23:55:20.915Z,98838.72
2023-05-25T23:57:49.786Z,98841.13
